Time;durP1;ratioP1;P1;durP2;ratioP2;P2;SDS_P1;SDS_P2;PMS_P1;PMS_P2;Temp;Humidity;BMP_temperature;BMP_pressure;BME280_temperature;BME280_humidity;BME280_pressure;Samples;Min_cycle;Max_cycle;Signal;HPM_P1;HPM_P2
2022/10/31 00:00:20;;;;;;;17.85;10.18;;;;;;;;;;6077901;23;20459;-84
2022/10/31 00:02:46;;;;;;;18.55;11.75;;;;;;;;;;6101550;23;20494;-84
2022/10/31 00:05:12;;;;;;;17.73;10.32;;;;;;;;;;6079360;23;20017;-83
2022/10/31 00:07:38;;;;;;;21.33;10.70;;;;;;;;;;6077729;23;20094;-85
2022/10/31 00:10:05;;;;;;;25.02;11.55;;;;;;;;;;6101872;23;20026;-84
2022/10/31 00:12:31;;;;;;;17.00;11.73;;;;;;;;;;6101812;23;20098;-85
2022/10/31 00:14:57;;;;;;;19.40;11.45;;;;;;;;;;6101767;23;20446;-83
2022/10/31 00:17:23;;;;;;;21.27;12.73;;;;;;;;;;6101974;23;20021;-84
2022/10/31 00:19:49;;;;;;;20.60;12.60;;;;;;;;;;6101521;23;20119;-82
2022/10/31 00:22:15;;;;;;;22.38;13.27;;;;;;;;;;6101651;23;20026;-82
2022/10/31 00:24:41;;;;;;;21.38;11.88;;;;;;;;;;6077945;23;20072;-84
2022/10/31 00:27:07;;;;;;;18.55;11.25;;;;;;;;;;6101591;23;20030;-80
2022/10/31 00:29:33;;;;;;;17.90;12.52;;;;;;;;;;6077779;23;20017;-79
2022/10/31 00:31:59;;;;;;;20.67;11.40;;;;;;;;;;6101892;23;20030;-79
2022/10/31 00:34:25;;;;;;;27.58;13.32;;;;;;;;;;6101603;23;20014;-79
2022/10/31 00:36:51;;;;;;;27.35;11.65;;;;;;;;;;6101434;23;20112;-78
2022/10/31 00:39:17;;;;;;;21.73;11.85;;;;;;;;;;6077656;23;20022;-79
2022/10/31 00:41:43;;;;;;;26.52;12.65;;;;;;;;;;6101575;23;20029;-79
2022/10/31 00:44:09;;;;;;;19.92;13.10;;;;;;;;;;6077674;23;20025;-80
2022/10/31 00:46:35;;;;;;;21.77;12.52;;;;;;;;;;6101740;23;20017;-79
2022/10/31 00:49:01;;;;;;;28.13;12.00;;;;;;;;;;6077536;23;20470;-80
2022/10/31 00:51:27;;;;;;;19.40;12.13;;;;;;;;;;6101304;23;20018;-80
2022/10/31 00:53:53;;;;;;;20.80;13.38;;;;;;;;;;6077805;23;20024;-79
2022/10/31 00:56:19;;;;;;;23.92;12.77;;;;;;;;;;6076102;23;20403;-79
2022/10/31 00:58:45;;;;;;;21.02;12.82;;;;;;;;;;6126047;23;20447;-80
2022/10/31 01:01:11;;;;;;;24.15;13.80;;;;;;;;;;6126060;23;20013;-80
2022/10/31 01:03:38;;;;;;;18.88;12.05;;;;;;;;;;6100042;23;20022;-80
2022/10/31 01:06:14;;;;;;;22.05;13.23;;;12.60;99.90;;;;;;6099832;23;20018;-79
2022/10/31 01:08:40;;;;;;;29.33;14.75;;;;;;;;;;6099974;23;20021;-79
2022/10/31 01:11:17;;;;;;;20.70;13.25;;;;;;;;;;6099990;23;20026;-78
2022/10/31 01:13:43;;;;;;;24.40;13.27;;;12.60;99.90;;;;;;6076003;23;20020;-79
2022/10/31 01:16:12;;;;;;;23.42;14.60;;;12.40;99.90;;;;;;6099691;23;20077;-79
2022/10/31 01:18:38;;;;;;;25.13;14.07;;;;;;;;;;6099519;23;20017;-79
2022/10/31 01:21:10;;;;;;;20.90;14.30;;;12.70;99.90;;;;;;6099616;23;20025;-78
2022/10/31 01:23:37;;;;;;;22.55;14.52;;;;;;;;;;6099749;23;20018;-78
2022/10/31 01:26:23;;;;;;;24.63;14.48;;;12.50;99.90;;;;;;6075578;23;20017;-80
2022/10/31 01:28:51;;;;;;;24.58;14.40;;;12.20;99.90;;;;;;6099321;23;20482;-79
2022/10/31 01:31:19;;;;;;;25.98;15.13;;;12.30;99.90;;;;;;6099420;23;20024;-79
2022/10/31 01:33:45;;;;;;;23.38;13.70;;;;;;;;;;6075927;23;20100;-80
2022/10/31 01:36:13;;;;;;;25.75;14.52;;;;;;;;;;6099456;23;20081;-80
2022/10/31 01:38:39;;;;;;;29.23;14.18;;;;;;;;;;6099570;23;20026;-80
2022/10/31 01:41:05;;;;;;;26.02;14.50;;;;;;;;;;6075475;23;20020;-80
2022/10/31 01:43:43;;;;;;;21.52;13.85;;;;;;;;;;6099618;23;20370;-80
2022/10/31 01:46:09;;;;;;;23.05;14.18;;;;;;;;;;6075582;23;20010;-80
2022/10/31 01:48:35;;;;;;;27.92;15.25;;;;;;;;;;6099334;23;20018;-80
2022/10/31 01:51:04;;;;;;;23.48;14.18;;;;;;;;;;6099227;23;20394;-80
2022/10/31 01:53:31;;;;;;;28.58;13.77;;;12.00;99.90;;;;;;6075477;23;20348;-80
2022/10/31 01:55:58;;;;;;;25.60;14.35;;;;;;;;;;6075493;23;20020;-79
2022/10/31 01:58:27;;;;;;;23.55;13.60;;;12.00;99.90;;;;;;6099538;23;20021;-79
2022/10/31 02:00:57;;;;;;;26.25;14.02;;;12.20;99.90;;;;;;6099458;23;20080;-80
2022/10/31 02:03:24;;;;;;;25.10;14.23;;;;;;;;;;6075705;23;20467;-83
2022/10/31 02:05:51;;;;;;;27.20;15.20;;;12.20;99.90;;;;;;6099503;23;20093;-83
2022/10/31 02:08:25;;;;;;;20.80;14.00;;;12.20;99.90;;;;;;6074705;23;20026;-81
2022/10/31 02:10:51;;;;;;;25.20;14.50;;;;;;;;;;6075394;23;20053;-83
2022/10/31 02:13:18;;;;;;;22.85;14.73;;;12.00;99.90;;;;;;6099026;23;20024;-84
2022/10/31 02:15:46;;;;;;;23.30;15.20;;;12.20;99.90;;;;;;6099123;23;20034;-84
2022/10/31 02:18:12;;;;;;;26.73;14.27;;;;;;;;;;6074503;23;20014;-85
2022/10/31 02:20:48;;;;;;;22.90;16.63;;;;;;;;;;6074148;23;20017;-81
2022/10/31 02:23:32;;;;;;;21.48;14.75;;;;;;;;;;6098762;23;20078;-84
2022/10/31 02:26:13;;;;;;;23.90;14.63;;;;;;;;;;6074624;23;20021;-80
2022/10/31 02:29:22;;;;;;;24.38;15.60;;;12.10;99.90;;;;;;6074953;23;20014;-79
2022/10/31 02:32:13;;;;;;;21.65;14.13;;;12.10;99.90;;;;;;6073927;23;20101;-82
2022/10/31 02:34:45;;;;;;;26.08;14.25;;;;;;;;;;6074518;23;20014;-83
2022/10/31 02:37:22;;;;;;;27.35;15.60;;;12.20;99.90;;;;;;6097987;23;20029;-80
2022/10/31 02:40:00;;;;;;;28.05;14.13;;;12.00;99.90;;;;;;6098418;23;20473;-83
2022/10/31 02:42:42;;;;;;;23.73;16.10;;;11.80;99.90;;;;;;6098550;23;20018;-83
2022/10/31 02:45:10;;;;;;;23.77;14.90;;;;;;;;;;6124916;23;20014;-82
2022/10/31 02:47:37;;;;;;;22.83;14.65;;;12.00;99.90;;;;;;6124188;23;20022;-82
2022/10/31 02:50:10;;;;;;;26.80;16.67;;;11.90;99.90;;;;;;6050930;23;20467;-83
2022/10/31 02:52:36;;;;;;;23.27;16.02;;;;;;;;;;6074688;23;20070;-83
2022/10/31 02:55:11;;;;;;;23.27;16.17;;;;;;;;;;6098390;23;20113;-83
2022/10/31 02:57:38;;;;;;;26.10;16.77;;;12.00;99.90;;;;;;6097521;23;20474;-83
2022/10/31 03:00:08;;;;;;;21.90;14.55;;;11.80;99.90;;;;;;6098495;23;20018;-79
2022/10/31 03:03:00;;;;;;;31.35;16.30;;;11.80;99.90;;;;;;6097732;23;20427;-79
2022/10/31 03:05:52;;;;;;;25.90;14.50;;;12.10;99.90;;;;;;6074581;23;20348;-80
2022/10/31 03:08:18;;;;;;;26.92;15.35;;;;;;;;;;6073742;23;20455;-80
2022/10/31 03:10:52;;;;;;;28.08;15.48;;;12.00;99.90;;;;;;6098306;23;20034;-81
2022/10/31 03:13:22;;;;;;;22.20;15.05;;;;;;;;;;6098374;23;20400;-80
2022/10/31 03:15:55;;;;;;;19.92;14.55;;;11.80;99.90;;;;;;6098139;23;20459;-80
2022/10/31 03:18:28;;;;;;;21.67;15.03;;;;;;;;;;6073639;23;20021;-80
2022/10/31 03:20:57;;;;;;;26.98;15.18;;;11.70;99.90;;;;;;6074242;23;20022;-79
2022/10/31 03:23:25;;;;;;;24.38;14.98;;;;;;;;;;6074245;23;20021;-80
2022/10/31 03:25:52;;;;;;;25.20;14.95;;;;;;;;;;6074247;23;20414;-79
2022/10/31 03:28:26;;;;;;;27.23;15.15;;;11.70;99.90;;;;;;6097793;23;20028;-80
2022/10/31 03:30:53;;;;;;;22.20;14.82;;;;;;;;;;6098576;23;20025;-80
2022/10/31 03:33:24;;;;;;;22.55;15.20;;;11.60;99.90;;;;;;6074443;23;20036;-80
2022/10/31 03:35:51;;;;;;;25.77;14.55;;;;;;;;;;6098233;23;20018;-80
2022/10/31 03:38:19;;;;;;;21.17;15.05;;;11.60;99.90;;;;;;6097314;23;20034;-80
2022/10/31 03:40:47;;;;;;;22.67;14.30;;;11.60;99.90;;;;;;6074160;23;20067;-80
2022/10/31 03:43:22;;;;;;;20.25;14.07;;;;;;;;;;6074029;23;20049;-79
2022/10/31 03:45:48;;;;;;;23.00;13.05;;;;;;;;;;6074238;23;20020;-80
2022/10/31 03:48:16;;;;;;;30.35;13.10;;;11.30;99.90;;;;;;6098065;23;20594;-80
2022/10/31 03:50:42;;;;;;;20.92;12.93;;;;;;;;;;6073643;23;20018;-80
2022/10/31 03:53:22;;;;;;;20.67;13.98;;;11.60;99.90;;;;;;6097498;23;20024;-80
2022/10/31 03:56:05;;;;;;;24.85;13.60;;;11.50;99.90;;;;;;6073780;23;20490;-80
2022/10/31 03:58:40;;;;;;;23.95;13.15;;;11.50;99.90;;;;;;6098037;23;20029;-82
2022/10/31 04:01:10;;;;;;;28.75;13.73;;;;;;;;;;6097989;23;20025;-84
2022/10/31 04:03:37;;;;;;;20.25;13.07;;;;;;;;;;6097515;23;20025;-83
2022/10/31 04:06:08;;;;;;;19.20;12.55;;;11.40;99.90;;;;;;6097986;23;20018;-83
2022/10/31 04:08:44;;;;;;;19.95;12.93;;;11.60;99.90;;;;;;6097779;23;20052;-82
2022/10/31 04:11:13;;;;;;;21.38;12.23;;;11.40;99.90;;;;;;6073820;23;20056;-80
2022/10/31 04:13:41;;;;;;;19.30;12.73;;;11.40;99.90;;;;;;6097353;23;20093;-83
2022/10/31 04:16:07;;;;;;;20.52;13.15;;;;;;;;;;6073744;23;20076;-82
2022/10/31 04:18:33;;;;;;;29.95;13.30;;;;;;;;;;6073811;23;20108;-80
2022/10/31 04:21:05;;;;;;;21.77;14.18;;;11.40;99.90;;;;;;6073640;23;20022;-79
2022/10/31 04:23:31;;;;;;;24.05;13.27;;;;;;;;;;6096989;23;20024;-80
2022/10/31 04:25:57;;;;;;;20.48;12.60;;;;;;;;;;6097951;23;20017;-79
2022/10/31 04:28:23;;;;;;;17.90;12.63;;;;;;;;;;6098360;23;20440;-80
2022/10/31 04:30:49;;;;;;;22.58;13.05;;;;;;;;;;6098916;23;20060;-80
2022/10/31 04:33:16;;;;;;;19.25;12.63;;;;;;;;;;6099957;23;20017;-80
2022/10/31 04:35:42;;;;;;;20.65;12.07;;;;;;;;;;6074800;23;20018;-80
2022/10/31 04:38:08;;;;;;;18.67;13.27;;;;;;;;;;6075407;23;20026;-80
2022/10/31 04:40:34;;;;;;;18.20;12.27;;;;;;;;;;6075594;23;20018;-80
2022/10/31 04:43:00;;;;;;;21.92;14.10;;;;;;;;;;6099583;23;20459;-80
2022/10/31 04:45:25;;;;;;;23.88;13.45;;;11.30;99.90;;;;;;6098443;23;20024;-80
2022/10/31 04:47:51;;;;;;;24.13;13.35;;;;;;;;;;6074763;23;20089;-80
2022/10/31 04:50:18;;;;;;;19.65;12.65;;;;;;;;;;6099889;23;20403;-80
2022/10/31 04:52:45;;;;;;;20.67;13.63;;;11.30;99.90;;;;;;6075438;23;20029;-80
2022/10/31 04:55:11;;;;;;;17.52;11.90;;;;;;;;;;6098992;23;20022;-80
2022/10/31 04:57:41;;;;;;;15.15;11.98;;;;;;;;;;6099746;23;20049;-80
2022/10/31 05:00:08;;;;;;;18.88;13.07;;;;;;;;;;6075778;23;20057;-82
2022/10/31 05:02:34;;;;;;;21.92;12.80;;;;;;;;;;6099586;23;20441;-81
2022/10/31 05:05:00;;;;;;;19.85;14.02;;;;;;;;;;6099601;23;20348;-82
2022/10/31 05:07:26;;;;;;;20.38;12.32;;;;;;;;;;6099021;23;20022;-83
2022/10/31 05:09:52;;;;;;;20.15;13.00;;;;;;;;;;6099022;23;20021;-82
2022/10/31 05:12:18;;;;;;;24.08;12.48;;;;;;;;;;6075330;23;20018;-81
2022/10/31 05:14:44;;;;;;;19.23;13.00;;;;;;;;;;6099557;23;20506;-82
2022/10/31 05:17:10;;;;;;;16.83;12.73;;;;;;;;;;6099443;23;20026;-82
2022/10/31 05:19:36;;;;;;;18.20;12.85;;;;;;;;;;6075406;23;20097;-82
2022/10/31 05:22:02;;;;;;;18.80;12.90;;;;;;;;;;6074644;23;20359;-83
2022/10/31 05:24:28;;;;;;;19.65;13.20;;;;;;;;;;6099170;23;20014;-82
2022/10/31 05:26:54;;;;;;;23.13;13.57;;;;;;;;;;6099371;23;20116;-82
2022/10/31 05:29:20;;;;;;;19.02;12.32;;;;;;;;;;6075459;23;20017;-82
2022/10/31 05:31:46;;;;;;;20.98;13.20;;;;;;;;;;6098750;23;20104;-83
2022/10/31 05:34:12;;;;;;;21.70;12.65;;;;;;;;;;6075482;23;20052;-82
2022/10/31 05:36:38;;;;;;;16.52;12.07;;;;;;;;;;6062229;23;20411;-82
2022/10/31 05:39:04;;;;;;;19.40;12.88;;;;;;;;;;6070276;23;20093;-82
2022/10/31 05:41:31;;;;;;;19.15;11.82;;;;;;;;;;6069412;23;20389;-83
2022/10/31 05:43:57;;;;;;;17.77;12.43;;;;;;;;;;6046304;23;20463;-84
2022/10/31 05:46:23;;;;;;;16.83;12.65;;;;;;;;;;6046596;23;20021;-84
2022/10/31 05:48:49;;;;;;;19.33;12.40;;;;;;;;;;6070267;23;20079;-84
2022/10/31 05:51:15;;;;;;;17.60;12.52;;;;;;;;;;6046105;23;20097;-80
2022/10/31 05:53:41;;;;;;;17.77;12.40;;;;;;;;;;6069111;23;20097;-79
2022/10/31 05:56:07;;;;;;;24.27;12.52;;;;;;;;;;6095696;23;20030;-79
2022/10/31 05:58:32;;;;;;;18.30;12.70;;;10.80;99.90;;;;;;6069795;23;20029;-80
2022/10/31 06:00:58;;;;;;;21.20;12.60;;;;;;;;;;6069945;23;20023;-80
2022/10/31 06:03:24;;;;;;;24.23;13.60;;;;;;;;;;6095620;23;20023;-80
2022/10/31 06:05:51;;;;;;;22.60;14.02;;;;;;;;;;6046624;23;20023;-80
2022/10/31 06:08:17;;;;;;;18.60;14.02;;;;;;;;;;6096169;23;20046;-81
2022/10/31 06:10:43;;;;;;;21.25;13.50;;;;;;;;;;6095731;23;20019;-80
2022/10/31 06:13:11;;;;;;;21.30;14.52;;;;;;;;;;6095508;23;20106;-81
2022/10/31 06:15:37;;;;;;;23.45;15.07;;;;;;;;;;6095362;23;20026;-81
2022/10/31 06:18:06;;;;;;;23.08;15.10;;;;;;;;;;6095318;23;20438;-81
2022/10/31 06:20:33;;;;;;;23.00;14.23;;;;;;;;;;6070437;23;20022;-81
2022/10/31 06:22:59;;;;;;;21.27;14.88;;;10.40;99.90;;;;;;6046100;23;20299;-80
2022/10/31 06:25:26;;;;;;;23.65;14.48;;;;;;;;;;6045810;23;20022;-80
2022/10/31 06:27:52;;;;;;;20.77;13.80;;;;;;;;;;6095415;23;20397;-81
2022/10/31 06:30:18;;;;;;;24.10;15.60;;;;;;;;;;6069794;23;20014;-81
2022/10/31 06:32:47;;;;;;;20.42;14.63;;;;;;;;;;6069725;23;20022;-80
2022/10/31 06:35:13;;;;;;;18.85;13.68;;;;;;;;;;6069954;23;20022;-80
2022/10/31 06:37:42;;;;;;;18.75;13.52;;;;;;;;;;6069510;23;20069;-81
2022/10/31 06:40:12;;;;;;;22.38;13.75;;;;;;;;;;6094746;23;20102;-81
2022/10/31 06:42:38;;;;;;;18.73;12.88;;;;;;;;;;6094900;23;20351;-81
2022/10/31 06:45:04;;;;;;;16.85;12.25;;;;;;;;;;6069596;23;20026;-81
2022/10/31 06:47:30;;;;;;;17.70;12.13;;;;;;;;;;6069024;23;20081;-80
2022/10/31 06:49:56;;;;;;;17.67;12.73;;;;;;;;;;6069747;23;20049;-80
2022/10/31 06:52:23;;;;;;;19.45;12.75;;;;;;;;;;6069312;23;20022;-81
2022/10/31 06:54:49;;;;;;;16.58;12.75;;;;;;;;;;6095085;23;20026;-81
2022/10/31 06:57:15;;;;;;;17.67;12.00;;;;;;;;;;6094712;23;20097;-81
2022/10/31 06:59:41;;;;;;;17.23;12.50;;;;;;;;;;6069463;23;20459;-80
2022/10/31 07:02:09;;;;;;;17.35;13.15;;;;;;;;;;6094679;23;20081;-80
2022/10/31 07:04:35;;;;;;;17.30;12.90;;;;;;;;;;6095088;23;20019;-80
2022/10/31 07:07:01;;;;;;;18.33;11.48;;;;;;;;;;6093796;23;20054;-81
2022/10/31 07:09:27;;;;;;;18.17;12.68;;;;;;;;;;6094835;23;20050;-80
2022/10/31 07:11:54;;;;;;;15.43;11.88;;;;;;;;;;6069085;23;20102;-80
2022/10/31 07:14:20;;;;;;;21.48;12.68;;;;;;;;;;6070048;23;20026;-81
2022/10/31 07:16:50;;;;;;;20.55;12.70;;;;;;;;;;6095017;23;20054;-80
2022/10/31 07:19:16;;;;;;;18.30;11.43;;;;;;;;;;6069412;23;20018;-79
2022/10/31 07:21:42;;;;;;;21.35;12.07;;;;;;;;;;6068841;23;20029;-79
2022/10/31 07:24:08;;;;;;;14.32;11.73;;;;;;;;;;6094224;23;20462;-79
2022/10/31 07:26:35;;;;;;;21.23;11.35;;;;;;;;;;6069546;23;20018;-81
2022/10/31 07:29:01;;;;;;;14.40;11.32;;;;;;;;;;6069227;23;20081;-79
2022/10/31 07:31:27;;;;;;;16.08;11.20;;;;;;;;;;6094707;23;20037;-79
2022/10/31 07:33:53;;;;;;;14.23;11.52;;;;;;;;;;6095175;23;20018;-79
2022/10/31 07:36:19;;;;;;;16.98;12.05;;;;;;;;;;6102934;23;20068;-79
2022/10/31 07:38:45;;;;;;;22.15;13.77;;;;;;;;;;6123503;23;20356;-81
2022/10/31 07:41:11;;;;;;;17.17;13.48;;;;;;;;;;6097855;23;20025;-80
2022/10/31 07:43:38;;;;;;;16.52;13.63;;;;;;;;;;6073903;23;20029;-80
2022/10/31 07:46:04;;;;;;;20.73;13.55;;;;;;;;;;6075084;23;20065;-83
2022/10/31 07:48:30;;;;;;;19.70;13.30;;;;;;;;;;6098224;23;20022;-82
2022/10/31 07:50:56;;;;;;;23.45;14.40;;;;;;;;;;6123761;23;20037;-83
2022/10/31 07:53:22;;;;;;;20.98;13.95;;;;;;;;;;6098257;23;20064;-82
2022/10/31 07:55:51;;;;;;;21.85;13.20;;;;;;;;;;6099518;23;20014;-83
2022/10/31 07:58:17;;;;;;;19.75;14.35;;;10.50;99.90;;;;;;6123760;23;20145;-82
2022/10/31 08:00:45;;;;;;;18.52;13.85;;;;;;;;;;6073580;23;20046;-82
2022/10/31 08:03:13;;;;;;;20.95;14.75;;;10.50;99.90;;;;;;6097639;23;20101;-81
2022/10/31 08:05:40;;;;;;;19.20;14.10;;;;;;;;;;6099300;23;20017;-83
2022/10/31 08:08:07;;;;;;;23.65;14.38;;;;;;;;;;6075824;23;20018;-83
2022/10/31 08:10:36;;;;;;;22.75;15.23;;;;;;;;;;6126282;23;20017;-80
2022/10/31 08:13:06;;;;;;;18.20;13.45;;;;;;;;;;6099746;23;20018;-81
2022/10/31 08:15:36;;;;;;;20.17;13.60;;;;;;;;;;6100365;23;20447;-81
2022/10/31 08:18:02;;;;;;;15.07;12.68;;;;;;;;;;6076229;23;20020;-82
2022/10/31 08:20:28;;;;;;;20.90;13.93;;;;;;;;;;6126348;23;20460;-82
2022/10/31 08:22:56;;;;;;;22.10;13.35;;;;;;;;;;6099185;23;20022;-80
2022/10/31 08:25:22;;;;;;;20.77;14.45;;;;;;;;;;6100021;23;20014;-81
2022/10/31 08:27:52;;;;;;;21.35;14.52;;;;;;;;;;6100094;23;20051;-81
2022/10/31 08:30:18;;;;;;;25.50;14.25;;;;;;;;;;6099511;23;20101;-79
2022/10/31 08:32:44;;;;;;;21.23;14.35;;;;;;;;;;6099642;23;20030;-80
2022/10/31 08:35:11;;;;;;;20.27;15.48;;;;;;;;;;6125195;23;20022;-79
2022/10/31 08:37:38;;;;;;;20.90;15.43;;;;;;;;;;6124813;23;20033;-80
2022/10/31 08:40:06;;;;;;;24.88;15.27;;;;;;;;;;6099529;23;20478;-80
2022/10/31 08:42:32;;;;;;;29.60;17.33;;;;;;;;;;6125577;23;20032;-79
2022/10/31 08:44:58;;;;;;;24.27;16.88;;;;;;;;;;6050452;23;20025;-79
2022/10/31 08:47:24;;;;;;;23.08;16.23;;;;;;;;;;6099739;23;20030;-79
2022/10/31 08:49:50;;;;;;;24.63;15.70;;;;;;;;;;6099977;23;20046;-79
2022/10/31 08:52:16;;;;;;;30.13;16.48;;;;;;;;;;6099618;23;20022;-79
2022/10/31 08:54:43;;;;;;;26.25;16.65;;;;;;;;;;6099604;23;20503;-79
2022/10/31 08:57:09;;;;;;;22.55;16.48;;;;;;;;;;6075810;23;20022;-79
2022/10/31 08:59:38;;;;;;;23.50;16.10;;;;;;;;;;6099099;23;20021;-79
2022/10/31 09:02:05;;;;;;;26.40;16.23;;;;;;;;;;6124882;23;20081;-80
2022/10/31 09:04:31;;;;;;;22.65;16.52;;;;;;;;;;6125543;23;20045;-80
2022/10/31 09:06:57;;;;;;;25.45;15.45;;;;;;;;;;6099458;23;20022;-79
2022/10/31 09:09:25;;;;;;;24.40;15.07;;;;;;;;;;6099458;23;20025;-79
2022/10/31 09:11:51;;;;;;;22.45;16.05;;;;;;;;;;6125366;23;20014;-79
2022/10/31 09:14:17;;;;;;;24.13;14.73;;;;;;;;;;6124682;23;20021;-79
2022/10/31 09:16:43;;;;;;;27.80;16.25;;;;;;;;;;6125135;23;20046;-79
2022/10/31 09:19:09;;;;;;;24.58;16.27;;;;;;;;;;6125440;23;20017;-79
2022/10/31 09:21:35;;;;;;;22.70;13.98;;;;;;;;;;6125012;23;20018;-79
2022/10/31 09:24:01;;;;;;;21.23;14.88;;;;;;;;;;6099117;23;20149;-79
2022/10/31 09:26:31;;;;;;;23.80;14.35;;;;;;;;;;6100214;23;20060;-79
2022/10/31 09:28:58;;;;;;;19.42;14.18;;;;;;;;;;6122958;23;20443;-79
2022/10/31 09:31:24;;;;;;;19.48;14.05;;;;;;;;;;6123687;23;20246;-80
2022/10/31 09:33:50;;;;;;;23.65;13.88;;;;;;;;;;6074764;23;20018;-82
2022/10/31 09:36:16;;;;;;;23.35;14.93;;;;;;;;;;6098047;23;20053;-83
2022/10/31 09:38:42;;;;;;;21.95;14.07;;;;;;;;;;6122810;23;20026;-83
2022/10/31 09:41:36;;;;;;;17.88;12.95;;;12.20;99.90;;;;;;6123906;23;20029;-80
2022/10/31 09:44:37;;;;;;;23.13;12.43;;;;;;;;;;6075390;23;20022;-83
2022/10/31 09:47:28;;;;;;;18.98;12.60;;;12.40;99.90;;;;;;6033179;23;20030;-81
2022/10/31 09:50:00;;;;;;;16.83;11.68;;;;;;;;;;5988729;23;20224;-83
2022/10/31 09:52:32;;;;;;;20.20;11.73;;;12.50;99.90;;;;;;6012619;23;20105;-80
2022/10/31 09:55:20;;;;;;;15.57;11.73;;;12.50;99.90;;;;;;5988700;23;20099;-84
2022/10/31 09:57:47;;;;;;;17.48;11.35;;;;;;;;;;5987876;23;20050;-83
2022/10/31 10:00:17;;;;;;;14.23;11.25;;;;;;;;;;6011994;23;20105;-82
2022/10/31 10:02:52;;;;;;;20.83;11.25;;;;;;;;;;6011279;23;20106;-84
2022/10/31 10:05:24;;;;;;;19.75;11.00;;;12.80;99.90;;;;;;6012388;23;20050;-83
2022/10/31 10:07:55;;;;;;;13.68;10.75;;;;;;;;;;6011691;23;20054;-82
2022/10/31 10:10:21;;;;;;;14.50;10.52;;;;;;;;;;6011333;23;20023;-83
2022/10/31 10:12:50;;;;;;;12.07;10.02;;;;;;;;;;6012067;23;20058;-83
2022/10/31 10:15:37;;;;;;;17.88;10.05;;;;;;;;;;6012188;23;20016;-84
2022/10/31 10:18:06;;;;;;;15.73;9.52;;;;;;;;;;6011514;23;20144;-81
2022/10/31 10:20:52;;;;;;;18.25;11.23;;;13.20;99.90;;;;;;6038862;23;20060;-85
2022/10/31 10:23:19;;;;;;;17.58;10.25;;;;;;;;;;6099604;23;20018;-82
2022/10/31 10:25:50;;;;;;;16.42;8.93;;;;;;;;;;6099304;23;20464;-80
2022/10/31 10:28:33;;;;;;;11.77;9.73;;;13.40;99.90;;;;;;6098932;23;20022;-83
2022/10/31 10:31:13;;;;;;;12.95;9.45;;;13.40;99.90;;;;;;6124471;23;20041;-79
2022/10/31 10:33:44;;;;;;;15.07;9.77;;;13.60;99.90;;;;;;6124908;23;20026;-79
2022/10/31 10:36:42;;;;;;;13.13;8.85;;;;;;;;;;6074326;23;20089;-80
2022/10/31 10:39:15;;;;;;;12.63;8.50;;;;;;;;;;5961696;23;20470;-79
2022/10/31 10:41:44;;;;;;;15.50;9.73;;;;;;;;;;5932482;23;20024;-79
2022/10/31 10:44:15;;;;;;;13.57;9.07;;;;;;;;;;5979038;24;20020;-80
2022/10/31 10:49:38;;;;;;;15.02;9.48;;;;;;;;;;5955154;24;20526;-79
2022/10/31 10:52:13;;;;;;;19.75;9.18;;;14.10;99.90;;;;;;5978607;24;20052;-79
2022/10/31 10:54:42;;;;;;;12.07;9.20;;;14.00;99.90;;;;;;5955517;24;20028;-79
2022/10/31 10:57:11;;;;;;;12.30;7.28;;;;;;;;;;5932457;24;20028;-79
2022/10/31 10:59:37;;;;;;;14.80;8.52;;;;;;;;;;5932073;24;20068;-79
2022/10/31 11:02:04;;;;;;;13.55;9.32;;;;;;;;;;5955020;24;20024;-79
2022/10/31 11:04:35;;;;;;;14.02;9.00;;;14.40;99.90;;;;;;5955133;24;20344;-80
2022/10/31 11:07:09;;;;;;;15.02;9.18;;;14.50;99.90;;;;;;5955428;24;20351;-80
2022/10/31 11:09:36;;;;;;;10.02;8.23;;;14.50;99.90;;;;;;5954692;24;20055;-79
2022/10/31 11:12:21;;;;;;;11.40;8.70;;;14.30;99.90;;;;;;5955289;24;20032;-80
2022/10/31 11:14:53;;;;;;;14.23;8.50;;;;;;;;;;6016545;23;20455;-79
2022/10/31 11:17:47;;;;;;;12.32;8.60;;;14.50;99.90;;;;;;6045561;23;20018;-79
2022/10/31 11:20:13;;;;;;;11.35;7.97;;;;;;;;;;5959675;23;20094;-79
2022/10/31 11:22:45;;;;;;;10.13;7.53;;;14.70;99.90;;;;;;5982517;23;20088;-79
2022/10/31 11:25:20;;;;;;;12.70;8.20;;;;;;;;;;5983064;23;20016;-79
2022/10/31 11:28:24;;;;;;;13.60;7.97;;;;;;;;;;5982556;23;20016;-80
2022/10/31 11:30:57;;;;;;;12.40;8.02;;;14.70;99.90;;;;;;5875861;24;20089;-80
2022/10/31 11:33:38;;;;;;;12.98;7.68;;;14.60;99.90;;;;;;5900519;24;20025;-80
2022/10/31 11:36:35;;;;;;;11.93;7.72;;;14.50;99.90;;;;;;5900071;24;20100;-79
2022/10/31 11:39:04;;;;;;;13.77;7.57;;;14.40;99.90;;;;;;5899179;24;20025;-79
2022/10/31 11:41:33;;;;;;;12.68;8.20;;;14.20;99.90;;;;;;5900231;24;20036;-79
2022/10/31 11:44:03;;;;;;;14.02;7.85;;;14.50;99.90;;;;;;5877532;24;20021;-80
2022/10/31 11:46:40;;;;;;;12.38;8.23;;;14.50;99.90;;;;;;5899997;24;20535;-79
2022/10/31 11:49:06;;;;;;;;;;;14.40;99.90;;;;;;5900568;24;20036;-79
2022/10/31 11:51:34;;;;;;;13.15;7.88;;;;;;;;;;5877298;24;19955;-79
2022/10/31 11:54:02;;;;;;;13.95;7.68;;;14.50;99.90;;;;;;5900114;24;20021;-80
2022/10/31 11:56:38;;;;;;;8.52;7.30;;;14.50;99.90;;;;;;5909632;23;20067;-80
2022/10/31 11:59:06;;;;;;;14.38;6.97;;;;;;;;;;6010987;23;20415;-79
2022/10/31 12:01:33;;;;;;;17.40;7.63;;;;;;;;;;6030390;23;20089;-78
2022/10/31 12:04:10;;;;;;;10.52;6.68;;;14.60;99.90;;;;;;6068228;23;20022;-79
2022/10/31 12:06:41;;;;;;;13.40;6.88;;;14.50;99.90;;;;;;6044810;23;20022;-80
2022/10/31 12:09:28;;;;;;;13.63;7.80;;;;;;;;;;6069667;23;20440;-80
2022/10/31 12:12:22;;;;;;;14.35;7.50;;;14.60;99.90;;;;;;6044667;23;20352;-79
2022/10/31 12:15:03;;;;;;;11.38;7.43;;;14.60;99.90;;;;;;6041751;23;20014;-78
2022/10/31 12:17:35;;;;;;;10.70;6.15;;;;;;;;;;6069151;23;20018;-79
2022/10/31 12:20:04;;;;;;;9.98;7.07;;;;;;;;;;6045018;23;20018;-79
2022/10/31 12:22:36;;;;;;;9.98;6.32;;;;;;;;;;6068506;23;20023;-79
2022/10/31 12:25:21;;;;;;;14.38;7.55;;;14.90;99.90;;;;;;6044959;23;20014;-79
2022/10/31 12:28:28;;;;;;;10.35;6.97;;;14.80;99.90;;;;;;6069204;23;20025;-79
2022/10/31 12:30:57;;;;;;;13.05;6.07;;;;;;;;;;6057130;23;20110;-78
2022/10/31 12:33:32;;;;;;;8.98;5.43;;;;;;;;;;6068740;23;20015;-79
2022/10/31 12:36:08;;;;;;;9.82;5.68;;;;;;;;;;6068927;23;20054;-79
2022/10/31 12:39:00;;;;;;;12.93;6.70;;;;;;;;;;6078723;23;20385;-78
2022/10/31 12:41:32;;;;;;;7.43;5.97;;;14.80;99.90;;;;;;6068751;23;20341;-79
2022/10/31 12:44:01;;;;;;;8.25;5.78;;;;;;;;;;6045195;23;20407;-80
2022/10/31 12:46:33;;;;;;;8.02;5.30;;;;;;;;;;6044921;23;20098;-79
2022/10/31 12:49:33;;;;;;;10.23;5.80;;;15.10;99.90;;;;;;6068724;23;20019;-79
2022/10/31 12:52:14;;;;;;;7.95;4.90;;;;;;;;;;6070112;23;20018;-80
2022/10/31 12:54:46;;;;;;;11.27;5.20;;;;;;;;;;6070568;23;20019;-81
2022/10/31 12:57:15;;;;;;;6.50;4.85;;;;;;;;;;6047516;23;20141;-82
2022/10/31 12:59:54;;;;;;;10.88;6.00;;;;;;;;;;6072138;23;20073;-82
2022/10/31 13:02:20;;;;;;;5.47;4.63;;;;;;;;;;6071415;23;20022;-86
2022/10/31 13:05:10;;;;;;;12.20;5.30;;;14.90;99.90;;;;;;6071149;23;20033;-86
2022/10/31 13:07:53;;;;;;;10.45;6.03;;;15.20;99.90;;;;;;6047965;23;20018;-86
2022/10/31 13:10:28;;;;;;;7.38;4.43;;;14.90;99.90;;;;;;6071825;23;20053;-86
2022/10/31 13:13:01;;;;;;;9.60;4.70;;;14.90;99.90;;;;;;6097490;23;20195;-84
2022/10/31 13:15:32;;;;;;;11.77;5.63;;;15.00;99.90;;;;;;6047542;23;20058;-85
2022/10/31 13:18:17;;;;;;;8.55;5.45;;;14.50;99.90;;;;;;6071181;23;20382;-86
2022/10/31 13:20:46;;;;;;;9.68;4.50;;;15.10;99.90;;;;;;6071272;23;20421;-80
2022/10/31 13:23:24;;;;;;;8.88;4.25;;;;;;;;;;6069958;23;20467;-80
2022/10/31 13:25:55;;;;;;;8.98;4.97;;;;;;;;;;6071154;23;20022;-81
2022/10/31 13:28:47;;;;;;;7.32;4.47;;;14.90;99.90;;;;;;6070488;23;20081;-78
2022/10/31 13:31:13;;;;;;;8.48;4.55;;;;;;;;;;6094672;23;20061;-79
2022/10/31 13:33:46;;;;;;;5.82;3.83;;;15.30;99.90;;;;;;6070056;23;20399;-80
2022/10/31 13:36:19;;;;;;;6.20;4.10;;;15.20;99.90;;;;;;6046596;23;20019;-79
2022/10/31 13:39:18;;;;;;;13.13;4.35;;;15.40;99.90;;;;;;6070077;23;20400;-80
2022/10/31 13:42:10;;;;;;;12.57;3.95;;;15.30;99.90;;;;;;6070237;23;20018;-80
2022/10/31 13:44:39;;;;;;;8.18;3.45;;;;;;;;;;6049431;23;20018;-78
2022/10/31 13:47:21;;;;;;;7.93;3.42;;;;;;;;;;6023593;23;20018;-80
2022/10/31 13:49:47;;;;;;;14.80;4.10;;;;;;;;;;6070423;23;20014;-81
2022/10/31 13:52:13;;;;;;;6.57;3.92;;;;;;;;;;6070573;23;20018;-80
2022/10/31 13:54:55;;;;;;;9.95;4.10;;;;;;;;;;6070703;23;20021;-79
2022/10/31 13:57:37;;;;;;;9.82;4.60;;;15.70;99.90;;;;;;6046735;23;20424;-80
2022/10/31 14:00:26;;;;;;;8.30;5.07;;;15.60;99.90;;;;;;6046534;23;20014;-82
2022/10/31 14:02:55;;;;;;;8.55;5.32;;;15.30;99.90;;;;;;5933494;24;20099;-82
2022/10/31 14:05:33;;;;;;;8.65;4.68;;;15.50;99.90;;;;;;5910190;24;20024;-82
2022/10/31 14:08:03;;;;;;;7.00;3.80;;;15.30;99.90;;;;;;5933520;24;20039;-82